Weather at Los Mangos de Baragua Airport

Public forecast

Using degrees Celsius for public forecast. Weather courtesy of forecast.io.

Closest aviation weather report (METAR) to Los Mangos de Baragua Airport

Closest report is Frank Pais International Airport, 27.3 nm (50.6 km) NW. Retrieved 2021/09/25 22:50 UTC (54 minutes ago):

MUHG 252250Z 07005KT 9000 FEW045 BKN060 28/25 Q1014

Closest aviation forecast (TAF) to Los Mangos de Baragua Airport

Closest forecast is Frank Pais International Airport, 27.3 nm (50.6 km) NW. Retrieved 2021/09/25 18:03 UTC (6 hours ago):

TAF MUHG 251700Z 2518/2618 06010KT 9000 SCT030 TEMPO 2518/2524 VRB10KT 5000 TSRA SCT020CB BKN030 BECMG 2601/2603 VRB03KT BECMG 2615/2617 07008KT